Time;durP1;ratioP1;P1;durP2;ratioP2;P2;SDS_P1;SDS_P2;PMS_P1;PMS_P2;Temp;Humidity;BMP_temperature;BMP_pressure;BME280_temperature;BME280_humidity;BME280_pressure;Samples;Min_cycle;Max_cycle;Signal;HPM_P1;HPM_P2
2024/02/04 00:01:14;;;;;;;5.28;3.35;;;11.10;72.00;;;;;;2519968;54;21000;-67
2024/02/04 00:03:41;;;;;;;4.70;2.83;;;11.10;72.00;;;;;;2286265;55;21025;-68
2024/02/04 00:06:08;;;;;;;5.05;3.08;;;11.10;72.10;;;;;;2286524;55;20941;-66
2024/02/04 00:08:35;;;;;;;4.90;3.00;;;11.10;72.20;;;;;;2286666;55;21008;-67
2024/02/04 00:11:01;;;;;;;5.35;3.12;;;11.00;72.90;;;;;;2514330;54;20926;-67
2024/02/04 00:13:29;;;;;;;4.10;2.53;;;11.10;72.30;;;;;;2516115;54;21873;-66
2024/02/04 00:15:59;;;;;;;4.95;2.78;;;11.10;72.40;;;;;;2520399;54;20977;-67
2024/02/04 00:18:25;;;;;;;4.90;3.17;;;11.10;72.40;;;;;;2285616;55;21056;-67
2024/02/04 00:20:52;;;;;;;4.82;2.97;;;11.10;72.50;;;;;;2286265;55;21002;-68
2024/02/04 00:23:18;;;;;;;4.55;2.80;;;11.00;72.40;;;;;;2520528;54;22041;-67
2024/02/04 00:25:47;;;;;;;5.53;2.67;;;11.10;72.50;;;;;;2286742;55;20941;-68
2024/02/04 00:28:14;;;;;;;4.05;2.40;;;11.10;72.50;;;;;;2281058;56;21296;-68
2024/02/04 00:30:40;;;;;;;5.30;2.85;;;11.10;72.60;;;;;;2285974;56;21759;-68
2024/02/04 00:33:06;;;;;;;4.87;2.50;;;11.10;72.60;;;;;;2286229;55;21057;-67
2024/02/04 00:35:33;;;;;;;5.70;2.55;;;11.10;72.50;;;;;;2519768;54;21348;-68
2024/02/04 00:37:59;;;;;;;5.45;2.90;;;11.10;72.50;;;;;;2515385;54;20970;-67
2024/02/04 00:40:26;;;;;;;6.37;2.97;;;11.10;72.50;;;;;;2282472;55;21000;-68
2024/02/04 00:42:52;;;;;;;4.03;2.35;;;11.10;72.60;;;;;;2520375;54;20957;-68
2024/02/04 00:45:19;;;;;;;4.07;2.28;;;11.20;72.70;;;;;;2286510;55;20941;-67
2024/02/04 00:47:45;;;;;;;4.40;2.65;;;11.20;72.80;;;;;;2519971;54;20937;-68
2024/02/04 00:50:12;;;;;;;4.03;2.20;;;11.10;72.70;;;;;;2286023;55;21041;-67
2024/02/04 00:52:38;;;;;;;4.10;1.98;;;11.20;72.80;;;;;;2285802;55;21260;-67
2024/02/04 00:55:05;;;;;;;4.60;2.45;;;11.20;72.80;;;;;;2520422;54;20973;-68
2024/02/04 00:57:31;;;;;;;5.03;2.75;;;11.20;72.70;;;;;;2520412;54;20980;-68
2024/02/04 00:59:58;;;;;;;4.70;2.47;;;11.20;72.60;;;;;;2286579;55;20940;-67
2024/02/04 01:02:24;;;;;;;4.40;2.30;;;11.20;72.60;;;;;;2519255;54;20994;-68
2024/02/04 01:04:53;;;;;;;4.55;2.60;;;11.20;72.40;;;;;;2513849;54;21228;-67
2024/02/04 01:07:22;;;;;;;4.00;2.45;;;11.20;72.20;;;;;;2276530;55;21306;-67
2024/02/04 01:09:48;;;;;;;4.50;2.30;;;11.20;72.20;;;;;;2512944;54;21421;-66
2024/02/04 01:12:15;;;;;;;5.30;2.37;;;11.20;72.20;;;;;;2519812;54;21336;-67
2024/02/04 01:14:41;;;;;;;3.87;2.20;;;11.20;72.20;;;;;;2285815;56;22225;-67
2024/02/04 01:17:08;;;;;;;3.42;2.05;;;11.20;72.20;;;;;;2520188;54;20929;-68
2024/02/04 01:19:35;;;;;;;3.87;2.12;;;11.20;72.10;;;;;;2288116;55;20965;-67
2024/02/04 01:22:01;;;;;;;3.45;1.87;;;11.20;72.10;;;;;;2516274;54;21010;-68
2024/02/04 01:24:28;;;;;;;3.70;1.83;;;11.20;72.10;;;;;;2284648;55;21010;-67
2024/02/04 01:26:55;;;;;;;3.55;1.87;;;11.10;72.00;;;;;;2513825;54;20997;-67
2024/02/04 01:29:21;;;;;;;3.30;1.75;;;11.10;72.00;;;;;;2286420;55;21578;-66
2024/02/04 01:31:48;;;;;;;3.50;1.60;;;11.10;72.70;;;;;;2520695;54;20965;-67
2024/02/04 01:34:15;;;;;;;3.20;1.52;;;11.10;71.90;;;;;;2286707;55;21958;-67
2024/02/04 01:36:44;;;;;;;3.42;1.50;;;11.10;71.90;;;;;;2520757;54;21001;-68
2024/02/04 01:39:10;;;;;;;3.22;1.37;;;11.10;71.80;;;;;;2289677;55;20937;-67
2024/02/04 01:41:37;;;;;;;2.33;1.20;;;11.00;71.90;;;;;;2512082;54;20952;-68
2024/02/04 01:44:09;;;;;;;3.12;1.23;;;11.00;71.90;;;;;;2520994;54;20945;-68
2024/02/04 01:46:35;;;;;;;2.80;1.27;;;11.00;71.90;;;;;;2520737;54;20956;-67
2024/02/04 01:49:05;;;;;;;2.75;1.20;;;11.00;72.10;;;;;;2520680;54;20941;-66
2024/02/04 01:51:31;;;;;;;3.30;1.20;;;11.00;72.10;;;;;;2286342;55;20933;-68
2024/02/04 01:53:57;;;;;;;2.75;1.23;;;11.00;72.10;;;;;;2520995;54;20953;-67
2024/02/04 01:56:25;;;;;;;3.30;1.30;;;11.00;72.10;;;;;;2285478;55;20948;-67
2024/02/04 01:58:51;;;;;;;5.70;1.60;;;11.00;72.00;;;;;;2517306;54;21045;-68
2024/02/04 02:01:18;;;;;;;3.12;1.52;;;10.90;71.70;;;;;;2285834;55;21585;-68
2024/02/04 02:03:44;;;;;;;3.12;1.40;;;10.90;71.60;;;;;;2285758;55;21748;-67
2024/02/04 02:06:13;;;;;;;3.80;1.73;;;10.90;71.60;;;;;;2285974;55;20937;-67
2024/02/04 02:08:40;;;;;;;2.75;1.40;;;10.90;71.60;;;;;;2520326;54;20993;-67
2024/02/04 02:11:11;;;;;;;2.90;1.50;;;10.90;71.60;;;;;;2286257;55;20989;-68
2024/02/04 02:13:38;;;;;;;3.20;1.42;;;10.90;71.60;;;;;;2285627;55;21024;-68
2024/02/04 02:16:10;;;;;;;4.57;1.27;;;10.90;71.80;;;;;;2286453;55;21000;-67
2024/02/04 02:19:00;;;;;;;3.40;1.50;;;10.80;71.60;;;;;;2520012;54;21420;-68
2024/02/04 02:21:57;;;;;;;2.37;1.10;;;10.80;71.70;;;;;;2520659;54;21013;-68
2024/02/04 02:24:43;;;;;;;2.70;1.25;;;10.80;71.40;;;;;;2521065;54;20997;-68
2024/02/04 02:27:09;;;;;;;2.90;1.27;;;10.80;71.30;;;;;;2520849;54;20989;-68
2024/02/04 02:29:36;;;;;;;2.87;1.35;;;10.80;71.90;;;;;;2520686;54;21269;-67
2024/02/04 02:32:03;;;;;;;3.30;1.35;;;10.80;71.90;;;;;;2286289;55;21329;-67
2024/02/04 02:34:30;;;;;;;3.40;1.50;;;10.80;71.90;;;;;;2286414;55;21391;-67
2024/02/04 02:37:07;;;;;;;2.90;1.50;;;10.70;71.90;;;;;;2511733;55;20985;-66
2024/02/04 02:39:39;;;;;;;2.60;1.30;;;10.70;71.80;;;;;;2286639;55;21438;-68
2024/02/04 02:42:07;;;;;;;2.85;1.30;;;10.70;71.80;;;;;;2520407;54;20989;-67
2024/02/04 02:44:33;;;;;;;2.58;1.25;;;10.70;71.80;;;;;;2520432;54;21822;-67
2024/02/04 02:46:59;;;;;;;2.85;1.37;;;10.70;71.90;;;;;;2286775;55;20930;-66
2024/02/04 02:49:25;;;;;;;3.17;1.52;;;10.70;71.90;;;;;;2517080;54;21029;-68
2024/02/04 02:51:54;;;;;;;3.20;1.60;;;10.60;71.80;;;;;;2515058;54;20912;-67
2024/02/04 02:54:21;;;;;;;2.80;1.40;;;10.70;72.00;;;;;;2283462;56;21037;-67
2024/02/04 02:56:47;;;;;;;3.53;1.42;;;10.70;72.00;;;;;;2283970;56;21419;-68
2024/02/04 02:59:14;;;;;;;2.85;1.40;;;10.70;72.00;;;;;;2517575;54;21009;-67
2024/02/04 03:01:40;;;;;;;3.15;1.58;;;10.60;71.90;;;;;;2285809;55;21566;-67
2024/02/04 03:04:07;;;;;;;3.10;1.35;;;10.70;72.10;;;;;;2285912;55;20905;-68
2024/02/04 03:06:34;;;;;;;2.53;1.30;;;10.60;72.00;;;;;;2520271;54;21045;-67
2024/02/04 03:09:00;;;;;;;2.55;1.45;;;10.60;72.10;;;;;;2519984;54;20941;-68
2024/02/04 03:11:27;;;;;;;2.80;1.20;;;10.70;72.20;;;;;;2520931;54;21544;-68
2024/02/04 03:13:54;;;;;;;3.70;1.40;;;10.60;72.10;;;;;;2520101;54;21193;-67
2024/02/04 03:16:20;;;;;;;3.47;1.27;;;10.70;72.30;;;;;;2521025;54;20914;-68
2024/02/04 03:18:46;;;;;;;2.65;1.35;;;10.60;72.20;;;;;;2286103;55;21836;-66
2024/02/04 03:21:16;;;;;;;2.70;1.20;;;10.70;72.40;;;;;;2519982;54;22080;-67
2024/02/04 03:23:43;;;;;;;3.00;1.33;;;10.70;72.30;;;;;;2519945;54;21001;-67
2024/02/04 03:26:10;;;;;;;5.90;1.50;;;10.70;72.40;;;;;;2285294;55;20941;-67
2024/02/04 03:28:36;;;;;;;2.80;1.20;;;10.70;72.40;;;;;;2520532;54;21001;-66
2024/02/04 03:31:03;;;;;;;3.03;1.40;;;10.70;72.40;;;;;;2520371;54;20967;-67
2024/02/04 03:33:29;;;;;;;3.87;1.40;;;10.70;72.40;;;;;;2286770;55;20949;-67
2024/02/04 03:35:57;;;;;;;2.72;1.35;;;10.70;72.40;;;;;;2286355;55;20929;-67
2024/02/04 03:38:23;;;;;;;3.05;1.40;;;10.70;72.40;;;;;;2288605;55;20985;-67
2024/02/04 03:40:51;;;;;;;2.80;1.40;;;10.70;72.30;;;;;;2512514;54;21057;-68
2024/02/04 03:43:17;;;;;;;2.80;1.33;;;10.60;72.10;;;;;;2520671;54;21184;-67
2024/02/04 03:45:44;;;;;;;3.20;1.55;;;10.70;72.20;;;;;;2520569;54;21020;-68
2024/02/04 03:48:10;;;;;;;2.42;1.27;;;10.70;72.30;;;;;;2286619;55;20941;-67
2024/02/04 03:50:37;;;;;;;2.37;1.27;;;10.70;72.30;;;;;;2285345;55;21492;-67
2024/02/04 03:53:03;;;;;;;2.80;1.37;;;10.70;72.30;;;;;;2282617;56;21260;-67
2024/02/04 03:55:29;;;;;;;2.62;1.42;;;10.70;72.30;;;;;;2286876;55;21100;-68
2024/02/04 03:57:57;;;;;;;2.62;1.37;;;10.70;72.20;;;;;;2286345;55;20949;-67
2024/02/04 04:00:26;;;;;;;2.60;1.40;;;10.70;72.20;;;;;;2285694;55;22925;-67
2024/02/04 04:02:52;;;;;;;3.12;1.40;;;10.70;72.30;;;;;;2286036;55;20953;-68
2024/02/04 04:05:18;;;;;;;2.75;1.40;;;10.70;72.20;;;;;;2285997;55;20946;-68
2024/02/04 04:07:45;;;;;;;3.03;1.50;;;10.70;72.20;;;;;;2286461;55;21029;-68
2024/02/04 04:10:14;;;;;;;2.65;1.00;;;10.70;72.10;;;;;;2286385;55;20965;-67
2024/02/04 04:12:42;;;;;;;2.83;1.30;;;10.70;72.10;;;;;;2285770;55;21037;-68
2024/02/04 04:15:08;;;;;;;2.45;1.12;;;10.80;72.20;;;;;;2285947;55;21763;-66
2024/02/04 04:17:34;;;;;;;2.67;1.25;;;10.70;72.10;;;;;;2286032;55;20977;-67
2024/02/04 04:20:01;;;;;;;2.12;1.15;;;10.70;72.10;;;;;;2287815;56;20958;-66
2024/02/04 04:22:29;;;;;;;2.90;1.30;;;10.70;72.10;;;;;;2280747;55;20933;-67
2024/02/04 04:24:55;;;;;;;3.35;1.10;;;10.70;72.20;;;;;;2520031;54;21213;-67
2024/02/04 04:27:21;;;;;;;2.67;1.20;;;10.70;72.20;;;;;;2511998;54;21085;-68
2024/02/04 04:29:48;;;;;;;2.55;1.20;;;10.70;72.20;;;;;;2519272;54;21245;-67
2024/02/04 04:32:14;;;;;;;2.53;1.30;;;10.70;72.20;;;;;;2286388;56;21466;-67
2024/02/04 04:34:40;;;;;;;2.25;1.00;;;10.70;72.30;;;;;;2286183;55;20957;-68
2024/02/04 04:37:08;;;;;;;3.00;1.30;;;10.80;72.40;;;;;;2520533;54;20933;-68
2024/02/04 04:39:35;;;;;;;3.05;1.37;;;10.70;72.30;;;;;;2285899;56;20988;-67
2024/02/04 04:42:04;;;;;;;7.87;1.58;;;10.80;72.40;;;;;;2519922;54;21676;-66
2024/02/04 04:44:30;;;;;;;2.35;1.08;;;10.80;72.40;;;;;;2280622;56;20937;-67
2024/02/04 04:46:56;;;;;;;2.17;1.10;;;10.80;72.40;;;;;;2285837;55;21017;-67
2024/02/04 04:49:23;;;;;;;2.30;1.17;;;10.80;72.40;;;;;;2520467;54;21663;-67
2024/02/04 04:51:49;;;;;;;2.25;0.90;;;10.70;72.30;;;;;;2285896;55;21008;-67
2024/02/04 04:54:16;;;;;;;2.22;1.00;;;10.80;72.40;;;;;;2520478;54;20970;-66
2024/02/04 04:56:43;;;;;;;2.67;1.10;;;10.80;72.30;;;;;;2286297;55;20957;-68
2024/02/04 04:59:09;;;;;;;2.12;1.10;;;10.80;72.30;;;;;;2513790;54;20934;-68
2024/02/04 05:01:35;;;;;;;1.95;0.85;;;10.80;72.30;;;;;;2518547;54;20964;-66
2024/02/04 05:04:02;;;;;;;2.78;0.80;;;10.80;72.30;;;;;;2520411;54;21245;-67
2024/02/04 05:06:28;;;;;;;2.30;1.20;;;10.80;72.30;;;;;;2284729;55;21017;-67
2024/02/04 05:08:57;;;;;;;2.50;1.00;;;10.80;72.30;;;;;;2516605;54;20974;-74
2024/02/04 05:11:24;;;;;;;1.67;0.80;;;10.80;72.20;;;;;;2520437;54;21567;-67
2024/02/04 05:13:50;;;;;;;2.55;1.00;;;10.80;72.40;;;;;;2288279;55;21825;-67
2024/02/04 05:16:17;;;;;;;2.62;1.12;;;10.80;72.40;;;;;;2512327;54;20996;-67
2024/02/04 05:18:43;;;;;;;2.25;0.80;;;10.80;72.40;;;;;;2520144;54;21319;-68
2024/02/04 05:21:10;;;;;;;1.87;0.90;;;10.80;72.40;;;;;;2520199;54;20957;-67
2024/02/04 05:23:37;;;;;;;2.47;1.00;;;10.80;72.40;;;;;;2520341;54;20898;-67
2024/02/04 05:26:04;;;;;;;2.47;0.85;;;10.80;72.40;;;;;;2288334;55;20969;-68
2024/02/04 05:28:31;;;;;;;2.25;1.00;;;10.80;72.40;;;;;;2512936;54;20949;-68
2024/02/04 05:31:01;;;;;;;1.92;0.90;;;10.80;72.40;;;;;;2519876;54;21820;-67
2024/02/04 05:33:27;;;;;;;2.47;1.05;;;10.90;72.60;;;;;;2285947;55;21042;-66
2024/02/04 05:35:54;;;;;;;3.62;1.20;;;10.80;72.40;;;;;;2286418;55;20976;-68
2024/02/04 05:38:21;;;;;;;2.53;1.08;;;10.80;72.40;;;;;;2286507;55;21779;-67
2024/02/04 05:40:50;;;;;;;2.00;0.90;;;10.80;72.40;;;;;;2520250;54;21036;-67
2024/02/04 05:43:16;;;;;;;2.10;0.90;;;10.90;72.50;;;;;;2286347;55;21049;-68
2024/02/04 05:45:43;;;;;;;2.10;0.90;;;10.90;72.50;;;;;;2520676;54;21831;-68
2024/02/04 05:48:09;;;;;;;2.00;0.90;;;10.90;72.60;;;;;;2286205;56;20917;-67
2024/02/04 05:50:36;;;;;;;2.50;0.90;;;10.90;72.60;;;;;;2520560;54;20933;-67
2024/02/04 05:53:02;;;;;;;2.20;1.00;;;10.90;72.60;;;;;;2520084;54;20925;-67
2024/02/04 05:55:29;;;;;;;1.80;0.90;;;10.90;72.50;;;;;;2286688;55;21042;-68
2024/02/04 05:57:55;;;;;;;2.50;1.20;;;10.90;72.40;;;;;;2520105;54;21186;-67
2024/02/04 06:00:23;;;;;;;2.28;1.00;;;10.90;72.30;;;;;;2285977;55;21020;-67
2024/02/04 06:02:49;;;;;;;1.60;0.70;;;10.90;72.30;;;;;;2281960;55;21042;-68
2024/02/04 06:05:16;;;;;;;2.12;0.90;;;10.90;72.20;;;;;;2520708;54;20937;-67
2024/02/04 06:07:42;;;;;;;1.55;0.80;;;10.90;72.20;;;;;;2520941;54;20929;-68
2024/02/04 06:10:09;;;;;;;1.85;0.82;;;10.90;72.10;;;;;;2286268;55;20925;-67
2024/02/04 06:12:37;;;;;;;1.95;0.80;;;10.90;72.10;;;;;;2520679;54;20997;-67
2024/02/04 06:15:04;;;;;;;1.83;0.80;;;10.90;72.10;;;;;;2519742;54;21423;-68
2024/02/04 06:17:31;;;;;;;1.83;0.70;;;10.90;71.90;;;;;;2511844;55;21353;-67
2024/02/04 06:19:59;;;;;;;2.33;0.88;;;11.00;72.10;;;;;;2285765;55;20937;-68
2024/02/04 06:22:25;;;;;;;2.28;0.70;;;10.80;72.00;;;;;;2286354;55;20917;-68
2024/02/04 06:24:53;;;;;;;2.03;0.85;;;10.80;71.80;;;;;;2520036;54;21012;-68
2024/02/04 06:27:19;;;;;;;2.12;0.93;;;10.80;71.80;;;;;;2286084;55;20957;-68
2024/02/04 06:29:49;;;;;;;1.40;0.68;;;10.80;71.80;;;;;;2520574;54;21009;-67
2024/02/04 06:32:16;;;;;;;2.10;0.70;;;10.80;71.90;;;;;;2289370;55;21024;-68
2024/02/04 06:34:44;;;;;;;1.73;0.73;;;10.80;71.80;;;;;;2278394;55;20997;-69
2024/02/04 06:37:10;;;;;;;2.80;0.90;;;10.80;71.80;;;;;;2515933;54;20961;-68
2024/02/04 06:39:38;;;;;;;2.33;0.90;;;10.80;71.70;;;;;;2282479;55;20937;-67
2024/02/04 06:42:04;;;;;;;2.03;0.77;;;10.70;71.70;;;;;;2519631;54;21220;-68
2024/02/04 06:44:32;;;;;;;1.70;0.70;;;10.70;71.70;;;;;;2286432;55;21004;-68
2024/02/04 06:46:58;;;;;;;1.98;0.90;;;10.70;71.60;;;;;;2519870;54;20954;-68
2024/02/04 06:49:26;;;;;;;2.17;0.90;;;10.70;71.70;;;;;;2515044;54;20950;-68
2024/02/04 06:51:56;;;;;;;1.92;0.80;;;10.70;71.70;;;;;;2516888;54;20938;-66
2024/02/04 06:54:25;;;;;;;1.77;0.80;;;10.70;71.70;;;;;;2286228;55;20941;-68
2024/02/04 06:56:52;;;;;;;1.80;0.80;;;10.70;71.70;;;;;;2286276;55;20961;-67
2024/02/04 06:59:19;;;;;;;2.35;0.80;;;10.70;71.80;;;;;;2520417;54;20934;-67
2024/02/04 07:01:45;;;;;;;1.98;0.80;;;10.60;71.70;;;;;;2520030;54;20989;-68
2024/02/04 07:04:11;;;;;;;1.33;0.60;;;10.60;71.70;;;;;;2285821;55;20946;-67
2024/02/04 07:06:38;;;;;;;1.65;0.70;;;10.60;71.70;;;;;;2509337;55;20941;-67
2024/02/04 07:09:04;;;;;;;1.98;0.90;;;10.60;71.70;;;;;;2285503;55;20928;-69
2024/02/04 07:11:30;;;;;;;1.87;0.75;;;10.60;71.60;;;;;;2286071;55;20925;-67
2024/02/04 07:14:00;;;;;;;1.45;0.70;;;10.60;71.60;;;;;;2286484;55;21734;-68
2024/02/04 07:16:26;;;;;;;2.10;0.70;;;10.50;71.50;;;;;;2521351;54;20944;-68
2024/02/04 07:18:54;;;;;;;2.37;0.80;;;10.60;71.70;;;;;;2285700;55;21478;-69
2024/02/04 07:21:22;;;;;;;1.70;0.62;;;10.50;71.60;;;;;;2516451;54;21177;-67
2024/02/04 07:23:50;;;;;;;1.50;0.73;;;10.50;71.70;;;;;;2285992;56;21045;-69
2024/02/04 07:26:18;;;;;;;1.83;0.73;;;10.50;71.80;;;;;;2516793;54;20961;-69
2024/02/04 07:28:45;;;;;;;2.08;0.70;;;10.50;71.90;;;;;;2286732;55;20949;-68
2024/02/04 07:31:11;;;;;;;1.48;0.70;;;10.50;71.90;;;;;;2286401;55;21272;-67
2024/02/04 07:33:38;;;;;;;1.60;0.80;;;10.50;72.00;;;;;;2287007;55;20957;-66
2024/02/04 07:36:05;;;;;;;2.10;0.70;;;10.50;72.10;;;;;;2519865;54;20889;-66
2024/02/04 07:38:31;;;;;;;1.40;0.62;;;10.60;72.10;;;;;;2521236;54;20921;-68
2024/02/04 07:40:59;;;;;;;1.50;0.70;;;10.50;72.10;;;;;;2520723;54;20941;-69
2024/02/04 07:43:25;;;;;;;2.03;0.50;;;10.50;72.10;;;;;;2520237;54;20944;-69
2024/02/04 07:45:51;;;;;;;1.12;0.50;;;10.50;72.80;;;;;;2520025;54;20937;-68
2024/02/04 07:48:19;;;;;;;3.28;0.80;;;10.60;72.30;;;;;;2286054;55;20934;-67
2024/02/04 07:50:46;;;;;;;2.28;0.75;;;10.60;72.30;;;;;;2519997;54;21012;-68
2024/02/04 07:53:13;;;;;;;1.70;0.70;;;10.60;72.40;;;;;;2286558;56;20961;-67
2024/02/04 07:55:39;;;;;;;1.40;0.60;;;10.60;72.40;;;;;;2284717;55;20958;-67
2024/02/04 07:58:06;;;;;;;1.85;0.80;;;10.60;72.40;;;;;;2283150;56;20978;-67
2024/02/04 08:00:33;;;;;;;1.25;0.60;;;10.60;72.40;;;;;;2281916;55;21010;-67
2024/02/04 08:03:00;;;;;;;1.48;0.60;;;10.60;72.40;;;;;;2519101;54;20973;-66
2024/02/04 08:05:26;;;;;;;1.17;0.40;;;10.70;72.60;;;;;;2517837;54;21114;-68
2024/02/04 08:07:53;;;;;;;1.67;0.68;;;10.70;72.70;;;;;;2515365;54;21003;-67
2024/02/04 08:10:21;;;;;;;1.77;0.60;;;10.70;72.70;;;;;;2519604;54;21025;-68
2024/02/04 08:12:50;;;;;;;1.35;0.70;;;10.70;72.60;;;;;;2514750;54;20969;-66
2024/02/04 08:15:18;;;;;;;1.62;0.50;;;10.70;72.60;;;;;;2282468;55;20941;-67
2024/02/04 08:17:45;;;;;;;1.60;0.77;;;10.70;72.60;;;;;;2285791;55;20957;-68
2024/02/04 08:20:12;;;;;;;1.98;0.80;;;10.70;72.60;;;;;;2520285;54;20937;-68
2024/02/04 08:22:38;;;;;;;2.12;0.80;;;10.80;72.60;;;;;;2286830;55;20925;-68
2024/02/04 08:25:05;;;;;;;1.35;0.55;;;10.80;72.60;;;;;;2285839;55;21013;-67
2024/02/04 08:27:32;;;;;;;1.67;0.70;;;10.80;72.60;;;;;;2520361;54;21861;-67
2024/02/04 08:30:01;;;;;;;1.08;0.50;;;10.80;72.70;;;;;;2285852;55;21312;-68
2024/02/04 08:32:36;;;;;;;1.30;0.60;;;10.80;72.70;;;;;;2286371;55;20917;-67
2024/02/04 08:35:15;;;;;;;0.88;0.50;;;10.90;72.60;;;;;;2281941;56;20938;-66
2024/02/04 08:37:41;;;;;;;1.37;0.50;;;10.90;72.60;;;;;;2520762;54;21025;-67
2024/02/04 08:40:10;;;;;;;0.90;0.50;;;10.90;72.50;;;;;;2520378;54;21494;-67
2024/02/04 08:42:37;;;;;;;0.98;0.50;;;10.90;72.60;;;;;;2286847;55;22568;-67
2024/02/04 08:45:04;;;;;;;2.40;0.60;;;11.00;72.70;;;;;;2285639;55;20969;-67
2024/02/04 08:47:31;;;;;;;1.52;0.75;;;11.00;72.70;;;;;;2287610;55;21316;-68
2024/02/04 08:50:00;;;;;;;1.15;0.50;;;11.00;72.70;;;;;;2520375;54;20972;-67
2024/02/04 08:52:28;;;;;;;1.65;0.60;;;11.00;72.60;;;;;;2518170;54;20958;-68
2024/02/04 08:54:54;;;;;;;2.12;0.65;;;11.00;72.70;;;;;;2280764;56;20962;-67
2024/02/04 08:57:21;;;;;;;1.60;0.62;;;11.10;72.80;;;;;;2521007;54;21521;-68
2024/02/04 08:59:49;;;;;;;1.58;0.65;;;11.00;72.70;;;;;;2520808;54;20969;-68
2024/02/04 09:02:15;;;;;;;1.17;0.50;;;11.10;72.80;;;;;;2519843;54;20937;-67
2024/02/04 09:04:42;;;;;;;1.08;0.50;;;11.10;72.40;;;;;;2286272;55;20929;-67
2024/02/04 09:07:08;;;;;;;1.40;0.52;;;11.10;72.50;;;;;;2285484;55;21574;-68
2024/02/04 09:09:34;;;;;;;1.62;0.60;;;11.20;72.60;;;;;;2286871;55;20977;-68
2024/02/04 09:12:01;;;;;;;1.08;0.57;;;11.20;72.60;;;;;;2286009;55;21012;-68
2024/02/04 09:14:28;;;;;;;1.58;0.60;;;11.20;72.60;;;;;;2286232;55;20930;-68
2024/02/04 09:16:54;;;;;;;0.90;0.45;;;11.20;72.70;;;;;;2520043;54;20957;-67
2024/02/04 09:19:24;;;;;;;1.45;0.50;;;11.20;72.70;;;;;;2286019;55;20925;-68
2024/02/04 09:21:51;;;;;;;2.60;0.70;;;11.30;72.80;;;;;;2520739;54;20925;-67
2024/02/04 09:24:17;;;;;;;1.10;0.50;;;11.30;72.80;;;;;;2286456;55;20981;-68
2024/02/04 09:26:43;;;;;;;1.55;0.50;;;11.40;72.90;;;;;;2286379;55;20985;-68
2024/02/04 09:29:11;;;;;;;1.42;0.60;;;11.40;73.00;;;;;;2285582;55;21005;-67
2024/02/04 09:31:37;;;;;;;1.87;0.60;;;11.40;72.90;;;;;;2285493;56;20974;-67
2024/02/04 09:34:05;;;;;;;1.35;0.50;;;11.40;72.90;;;;;;2518837;54;20950;-69
2024/02/04 09:36:31;;;;;;;1.00;0.50;;;11.40;72.80;;;;;;2289633;55;21005;-68
2024/02/04 09:38:58;;;;;;;0.88;0.40;;;11.50;72.60;;;;;;2512127;54;20969;-68
2024/02/04 09:41:26;;;;;;;1.08;0.50;;;11.50;72.60;;;;;;2286517;55;21432;-68
2024/02/04 09:43:53;;;;;;;0.77;0.40;;;11.50;72.80;;;;;;2286298;55;21048;-68
2024/02/04 09:46:20;;;;;;;1.05;0.55;;;11.60;72.60;;;;;;2520916;54;21268;-67
2024/02/04 09:48:46;;;;;;;0.73;0.37;;;11.60;72.60;;;;;;2520330;54;20929;-68
2024/02/04 09:51:15;;;;;;;1.08;0.50;;;11.60;72.70;;;;;;2520593;54;21383;-68
2024/02/04 09:53:45;;;;;;;1.60;0.60;;;11.70;72.70;;;;;;2520921;54;21025;-67
2024/02/04 09:56:12;;;;;;;1.08;0.47;;;11.70;72.50;;;;;;2286387;55;21727;-67
2024/02/04 09:58:38;;;;;;;2.97;0.77;;;11.70;72.70;;;;;;2287534;55;21082;-66
2024/02/04 10:01:08;;;;;;;1.92;0.77;;;11.70;72.70;;;;;;2514268;54;20933;-66
2024/02/04 10:03:36;;;;;;;1.98;0.70;;;11.80;72.70;;;;;;2520889;54;20993;-67
2024/02/04 10:06:02;;;;;;;1.60;0.57;;;11.80;72.70;;;;;;2285600;55;21166;-67
2024/02/04 10:08:30;;;;;;;1.65;0.57;;;11.80;73.70;;;;;;2520688;54;20925;-68
2024/02/04 10:10:59;;;;;;;1.42;0.60;;;11.80;73.20;;;;;;2286443;55;20952;-68
2024/02/04 10:13:25;;;;;;;1.30;0.50;;;11.90;73.40;;;;;;2520661;54;21473;-67
2024/02/04 10:15:52;;;;;;;1.60;0.50;;;11.90;73.50;;;;;;2287352;55;21003;-69
2024/02/04 10:18:19;;;;;;;1.35;0.60;;;12.00;73.50;;;;;;2288511;55;21005;-67
2024/02/04 10:20:45;;;;;;;0.75;0.40;;;12.00;73.20;;;;;;2520051;54;20945;-67
2024/02/04 10:23:12;;;;;;;1.05;0.45;;;12.10;73.50;;;;;;2286309;55;20994;-68
2024/02/04 10:25:39;;;;;;;0.75;0.40;;;12.10;73.50;;;;;;2286570;55;20965;-67
2024/02/04 10:28:05;;;;;;;2.45;0.50;;;12.20;74.00;;;;;;2282513;55;21041;-69
2024/02/04 10:30:32;;;;;;;1.90;0.60;;;12.30;74.50;;;;;;2520904;54;21193;-69
2024/02/04 10:32:59;;;;;;;1.55;0.50;;;12.30;74.80;;;;;;2520761;54;20941;-69
2024/02/04 10:35:25;;;;;;;1.62;0.70;;;12.40;75.20;;;;;;2520563;54;21695;-68
2024/02/04 10:37:52;;;;;;;1.60;0.60;;;12.50;75.40;;;;;;2519248;54;20893;-68
2024/02/04 10:40:20;;;;;;;1.10;0.50;;;12.60;75.70;;;;;;2285993;55;22067;-67
2024/02/04 10:42:47;;;;;;;1.17;0.60;;;12.70;75.90;;;;;;2285781;55;20960;-67
2024/02/04 10:45:14;;;;;;;0.80;0.40;;;12.80;76.10;;;;;;2285868;55;20988;-68
2024/02/04 10:47:41;;;;;;;1.70;0.75;;;12.90;75.90;;;;;;2520376;54;21013;-68
2024/02/04 10:50:08;;;;;;;1.50;0.60;;;13.00;75.50;;;;;;2281615;55;21415;-68
2024/02/04 10:52:39;;;;;;;1.48;0.68;;;13.10;75.10;;;;;;2286114;55;20948;-68
2024/02/04 10:55:12;;;;;;;1.65;0.60;;;13.20;74.20;;;;;;2512381;54;21017;-68
2024/02/04 10:57:39;;;;;;;1.45;0.60;;;13.30;74.20;;;;;;2519899;54;20993;-67
2024/02/04 11:00:09;;;;;;;1.17;0.50;;;13.30;74.10;;;;;;2512569;54;21033;-69
2024/02/04 11:02:36;;;;;;;1.65;0.60;;;13.40;74.00;;;;;;2516702;54;20982;-68
2024/02/04 11:05:04;;;;;;;1.65;0.62;;;13.40;74.00;;;;;;2520000;54;20949;-67
2024/02/04 11:07:33;;;;;;;1.25;0.50;;;13.40;73.70;;;;;;2520652;54;20944;-69
2024/02/04 11:10:04;;;;;;;0.95;0.50;;;13.50;73.40;;;;;;2285454;55;20945;-69
2024/02/04 11:12:30;;;;;;;1.23;0.50;;;13.50;72.80;;;;;;2286133;55;20973;-69
2024/02/04 11:15:04;;;;;;;1.52;0.55;;;13.50;72.20;;;;;;2519896;54;20933;-67
2024/02/04 11:17:57;;;;;;;0.98;0.43;;;13.60;72.30;;;;;;2286550;55;21798;-70
2024/02/04 11:21:07;;;;;;;1.58;0.50;;;13.60;71.30;;;;;;2514397;54;21017;-69
2024/02/04 11:24:06;;;;;;;1.70;0.40;;;13.50;71.00;;;;;;2285962;55;20952;-69
2024/02/04 11:26:34;;;;;;;1.08;0.40;;;13.60;71.40;;;;;;2286370;55;21174;-67
2024/02/04 11:29:06;;;;;;;1.05;0.40;;;13.50;72.20;;;;;;2285057;55;20941;-68
2024/02/04 11:31:33;;;;;;;1.37;0.50;;;13.60;72.30;;;;;;2286370;55;20949;-68
2024/02/04 11:33:59;;;;;;;1.02;0.50;;;13.60;72.80;;;;;;2286083;55;21008;-68
2024/02/04 11:36:26;;;;;;;1.33;0.52;;;13.60;73.00;;;;;;2514541;54;20957;-68
2024/02/04 11:38:52;;;;;;;1.90;0.60;;;13.60;73.20;;;;;;2284424;56;20936;-69
2024/02/04 11:41:27;;;;;;;1.50;0.60;;;13.70;73.50;;;;;;2520150;54;21237;-69
2024/02/04 11:43:56;;;;;;;0.90;0.40;;;13.70;73.60;;;;;;2287349;56;20956;-70
2024/02/04 11:46:32;;;;;;;2.22;0.60;;;13.80;74.00;;;;;;2285041;55;21049;-69
2024/02/04 11:49:02;;;;;;;1.10;0.50;;;13.80;73.40;;;;;;2290656;56;20951;-68
2024/02/04 11:51:30;;;;;;;0.80;0.40;;;13.90;74.40;;;;;;2282609;56;20953;-68
2024/02/04 11:53:56;;;;;;;1.95;0.60;;;13.90;73.80;;;;;;2286361;55;21010;-68
2024/02/04 11:56:24;;;;;;;1.00;0.55;;;14.00;74.00;;;;;;2520661;54;20953;-68
2024/02/04 11:58:50;;;;;;;1.60;0.68;;;14.00;73.60;;;;;;2519913;54;20978;-70
2024/02/04 12:01:17;;;;;;;2.33;0.90;;;14.10;73.40;;;;;;2285899;55;20948;-68
2024/02/04 12:03:43;;;;;;;1.08;0.50;;;14.20;73.60;;;;;;2286672;56;21421;-68
2024/02/04 12:06:10;;;;;;;2.17;0.55;;;14.20;73.40;;;;;;2285949;55;21569;-68
2024/02/04 12:08:39;;;;;;;2.62;0.60;;;14.20;73.20;;;;;;2286358;55;21241;-69
2024/02/04 12:11:05;;;;;;;1.90;0.73;;;14.20;73.10;;;;;;2286446;55;21540;-68
2024/02/04 12:13:32;;;;;;;2.55;0.95;;;14.30;73.60;;;;;;2289051;55;20945;-69
2024/02/04 12:16:00;;;;;;;2.12;0.88;;;14.30;73.70;;;;;;2511587;54;20937;-68
2024/02/04 12:18:27;;;;;;;1.33;0.60;;;14.40;73.70;;;;;;2287177;55;20917;-69
2024/02/04 12:20:54;;;;;;;1.52;0.60;;;14.40;73.40;;;;;;2284689;55;20926;-68
2024/02/04 12:23:23;;;;;;;1.52;0.60;;;14.40;73.30;;;;;;2509665;55;21025;-69
2024/02/04 12:25:52;;;;;;;0.90;0.40;;;14.50;73.40;;;;;;2509804;55;21518;-71
2024/02/04 12:28:20;;;;;;;1.35;0.55;;;14.50;73.30;;;;;;2282074;56;20921;-68
2024/02/04 12:30:54;;;;;;;1.27;0.50;;;14.60;73.00;;;;;;2286897;55;20973;-71
2024/02/04 12:33:21;;;;;;;1.10;0.40;;;14.60;72.40;;;;;;2286533;55;20929;-68
2024/02/04 12:35:51;;;;;;;1.17;0.50;;;14.60;72.70;;;;;;2287186;55;21028;-69
2024/02/04 12:38:18;;;;;;;0.95;0.40;;;14.60;72.40;;;;;;2286735;55;20990;-68
2024/02/04 12:40:49;;;;;;;1.17;0.50;;;14.60;72.50;;;;;;2286668;55;20926;-69
2024/02/04 12:43:23;;;;;;;0.77;0.43;;;14.70;72.60;;;;;;2285956;55;21316;-68
2024/02/04 12:45:50;;;;;;;1.85;0.60;;;14.70;72.10;;;;;;2279926;55;21040;-68
2024/02/04 12:48:20;;;;;;;1.20;0.45;;;14.70;72.40;;;;;;2283002;55;20981;-67
2024/02/04 12:50:47;;;;;;;0.95;0.50;;;14.70;72.20;;;;;;2284255;55;20941;-68